Time;durP1;ratioP1;P1;durP2;ratioP2;P2;SDS_P1;SDS_P2;PMS_P1;PMS_P2;Temp;Humidity;BMP_temperature;BMP_pressure;BME280_temperature;BME280_humidity;BME280_pressure;Samples;Min_cycle;Max_cycle;Signal;HPM_P1;HPM_P2
2022/10/08 00:01:00;;;;;;;9.82;2.97;;;;;;;12.25;100.00;101449.13;5028998;28;20468;-71
2022/10/08 00:03:28;;;;;;;14.48;2.97;;;;;;;12.22;100.00;101448.50;5014476;28;20053;-70
2022/10/08 00:06:04;;;;;;;12.50;3.42;;;;;;;12.22;100.00;101455.81;5021987;28;20026;-71
2022/10/08 00:08:33;;;;;;;14.68;3.78;;;;;;;12.19;100.00;101446.22;5034192;28;20026;-71
2022/10/08 00:11:02;;;;;;;11.77;3.33;;;;;;;12.20;100.00;101444.38;5030877;28;20056;-71
2022/10/08 00:13:39;;;;;;;12.00;3.20;;;;;;;12.19;100.00;101443.50;5027788;28;20087;-72
2022/10/08 00:16:06;;;;;;;10.40;3.20;;;;;;;12.20;100.00;101444.38;5021283;28;20033;-71
2022/10/08 00:18:31;;;;;;;14.68;3.60;;;;;;;12.19;100.00;101440.81;5029665;28;20026;-71
2022/10/08 00:21:13;;;;;;;15.18;3.63;;;;;;;12.28;100.00;101456.81;5027146;28;20626;-70
2022/10/08 00:23:39;;;;;;;14.25;3.15;;;;;;;12.26;100.00;101450.75;5017462;28;20040;-71
2022/10/08 00:26:06;;;;;;;14.48;3.85;;;;;;;12.23;100.00;101442.03;5022388;28;20033;-71
2022/10/08 00:28:35;;;;;;;16.38;4.10;;;;;;;12.23;100.00;101442.03;5030441;28;20021;-70
2022/10/08 00:31:10;;;;;;;15.43;3.47;;;;;;;12.26;100.00;101448.06;5042941;28;20080;-71
2022/10/08 00:33:36;;;;;;;11.38;3.28;;;;;;;12.28;100.00;101449.50;5014266;28;20485;-70
2022/10/08 00:36:07;;;;;;;13.02;3.33;;;;;;;12.30;100.00;101447.38;5014105;28;20026;-72
2022/10/08 00:38:33;;;;;;;12.07;3.25;;;;;;;12.31;100.00;101437.38;5013686;28;20026;-72
2022/10/08 00:40:59;;;;;;;13.40;3.45;;;;;;;12.34;100.00;101450.50;5014575;28;20028;-71
2022/10/08 00:43:42;;;;;;;16.55;3.40;;;;;;;12.34;100.00;101442.38;5033248;28;20037;-71
2022/10/08 00:46:29;;;;;;;14.55;4.10;;;;;;;12.35;100.00;101447.56;5028308;28;20037;-70
2022/10/08 00:49:03;;;;;;;14.20;3.53;;;;;;;12.34;100.00;101445.06;5029155;28;20415;-70
2022/10/08 00:51:31;;;;;;;15.95;3.17;;;;;;;12.36;100.00;101445.69;5013331;28;20029;-69
2022/10/08 00:53:57;;;;;;;14.15;3.55;;;;;;;12.37;100.00;101447.34;5012187;28;20364;-70
2022/10/08 00:56:23;;;;;;;12.60;3.33;;;;;;;12.38;100.00;101451.72;5013592;28;20026;-70
2022/10/08 00:58:50;;;;;;;11.38;3.33;;;;;;;12.39;100.00;101453.38;5013713;28;20500;-71
2022/10/08 01:01:16;;;;;;;12.98;3.80;;;;;;;12.35;100.00;101450.28;5012057;28;20043;-71
2022/10/08 01:03:41;;;;;;;12.43;3.40;;;;;;;12.39;100.00;101454.22;5032818;28;20034;-70
2022/10/08 01:06:19;;;;;;;12.38;3.60;;;;;;;12.40;100.00;101457.75;5033161;28;20036;-71
2022/10/08 01:09:07;;;;;;;16.58;3.65;;;;;;;12.40;100.00;101465.91;5031805;28;20104;-71
2022/10/08 01:11:54;;;;;;;11.05;3.30;;;;;;;12.43;100.00;101470.88;5026457;28;20029;-71
2022/10/08 01:14:38;;;;;;;11.23;2.90;;;;;;;12.44;100.00;101479.84;5012713;28;20026;-70
2022/10/08 01:17:19;;;;;;;17.73;3.70;;;;;;;12.42;100.00;101488.22;5013141;28;20022;-71
2022/10/08 01:20:03;;;;;;;11.50;3.25;;;;;;;12.37;100.00;101482.63;5022110;28;20097;-71
2022/10/08 01:22:36;;;;;;;14.30;3.28;;;;;;;12.36;100.00;101480.97;5019010;28;20050;-71
2022/10/08 01:25:49;;;;;;;14.23;3.38;;;;;;;12.29;100.00;101474.75;5012919;28;20025;-71
2022/10/08 01:28:34;;;;;;;15.32;3.30;;;;;;;12.30;100.00;101474.53;5016030;28;20042;-71
2022/10/08 01:31:29;;;;;;;17.55;3.90;;;;;;;12.18;100.00;101479.00;5029553;28;20156;-70
2022/10/08 01:34:05;;;;;;;13.30;3.65;;;;;;;12.09;100.00;101480.34;5013484;28;20022;-70
2022/10/08 01:36:37;;;;;;;15.82;3.47;;;;;;;12.05;100.00;101479.94;5029368;28;20033;-71
2022/10/08 01:39:07;;;;;;;10.55;3.15;;;;;;;11.99;100.00;101480.84;5032838;28;20021;-71
2022/10/08 01:41:33;;;;;;;13.82;3.45;;;;;;;11.93;100.00;101484.41;5031297;28;20108;-71
2022/10/08 01:44:07;;;;;;;11.82;4.07;;;;;;;11.87;100.00;101481.47;5027823;28;20461;-71
2022/10/08 01:46:37;;;;;;;10.27;3.22;;;;;;;11.84;100.00;101473.78;5016075;28;20029;-70
2022/10/08 01:49:08;;;;;;;12.52;2.97;;;;;;;11.81;100.00;101476.94;5013022;28;20096;-72
2022/10/08 01:51:52;;;;;;;14.80;3.40;;;;;;;11.80;100.00;101480.69;5012406;28;20050;-71
2022/10/08 01:54:21;;;;;;;8.95;3.25;;;;;;;11.79;100.00;101481.75;5031643;28;20747;-70
2022/10/08 01:56:48;;;;;;;12.70;3.47;;;;;;;11.78;100.00;101485.50;5032372;28;20083;-71
2022/10/08 01:59:42;;;;;;;12.25;3.10;;;;;;;11.80;100.00;101491.53;5032091;28;20109;-70
2022/10/08 02:02:20;;;;;;;9.07;2.72;;;;;;;11.77;100.00;101497.38;5028731;28;20091;-71
2022/10/08 02:04:48;;;;;;;11.55;2.70;;;;;;;11.72;100.00;101491.78;5031375;28;20033;-71
2022/10/08 02:07:17;;;;;;;9.77;2.67;;;;;;;11.70;100.00;101497.44;5035118;28;20587;-71
2022/10/08 02:09:46;;;;;;;12.50;2.70;;;;;;;11.66;100.00;101498.09;5034725;28;20028;-71
2022/10/08 02:12:13;;;;;;;11.45;2.80;;;;;;;11.63;100.00;101495.81;5035062;28;20029;-71
2022/10/08 02:14:49;;;;;;;15.80;3.30;;;;;;;11.60;100.00;101493.53;5036475;28;20080;-71
2022/10/08 02:17:38;;;;;;;9.25;2.65;;;;;;;11.59;100.00;101491.88;5036337;28;20029;-71
2022/10/08 02:20:21;;;;;;;10.20;2.80;;;;;;;11.56;100.00;101493.13;5036084;28;20354;-71
2022/10/08 02:22:58;;;;;;;13.60;2.83;;;;;;;11.53;100.00;101483.56;5032164;28;20452;-70
2022/10/08 02:25:30;;;;;;;9.95;2.55;;;;;;;11.50;100.00;101496.69;5015939;28;20470;-71
2022/10/08 02:28:16;;;;;;;11.93;2.50;;;;;;;11.48;100.00;101491.50;5027587;28;20082;-70
2022/10/08 02:30:49;;;;;;;11.38;2.70;;;;;;;11.45;100.00;101497.34;5043737;28;20037;-71
2022/10/08 02:33:25;;;;;;;11.60;2.95;;;;;;;11.45;100.00;101501.94;5033578;28;20033;-71
2022/10/08 02:35:54;;;;;;;9.88;2.20;;;;;;;11.43;100.00;101498.59;5016501;28;20026;-70
2022/10/08 02:38:23;;;;;;;8.25;2.47;;;;;;;11.39;100.00;101500.09;5022803;28;20097;-71
2022/10/08 02:40:53;;;;;;;7.75;2.40;;;;;;;11.36;100.00;101501.34;5018643;28;20029;-70
2022/10/08 02:43:27;;;;;;;9.82;2.50;;;;;;;11.37;100.00;101504.88;5035455;28;20387;-70
2022/10/08 02:46:01;;;;;;;9.82;2.40;;;;;;;11.35;100.00;101496.97;5033392;28;20476;-71
2022/10/08 02:48:31;;;;;;;9.73;2.50;;;;;;;11.30;100.00;101496.78;5035782;28;20028;-72
2022/10/08 02:51:03;;;;;;;10.38;2.60;;;;;;;11.29;100.00;101497.81;5033722;28;20353;-71
2022/10/08 02:53:28;;;;;;;8.13;2.92;;;;;;;11.27;100.00;101489.91;5035523;28;20115;-71
2022/10/08 02:56:12;;;;;;;9.38;2.42;;;;;;;11.27;100.00;101492.63;5035740;28;20092;-71
2022/10/08 02:58:38;;;;;;;10.07;2.33;;;;;;;11.21;100.00;101484.53;5035703;28;20030;-71
2022/10/08 03:01:07;;;;;;;9.18;2.38;;;;;;;11.20;100.00;101488.25;5028324;28;20548;-72
2022/10/08 03:03:40;;;;;;;8.05;2.22;;;;;;;11.19;100.00;101484.72;5015717;28;20980;-70
2022/10/08 03:06:09;;;;;;;8.23;2.10;;;;;;;11.14;100.00;101492.66;5015822;28;20037;-71
2022/10/08 03:08:45;;;;;;;8.98;2.55;;;;;;;11.14;100.00;101493.50;5015515;28;20025;-71
2022/10/08 03:11:12;;;;;;;7.38;2.08;;;;;;;11.17;100.00;101493.06;5014946;28;20152;-71
2022/10/08 03:13:41;;;;;;;8.00;2.42;;;;;;;11.15;100.00;101502.44;5015347;28;20445;-70
2022/10/08 03:16:10;;;;;;;8.30;2.40;;;;;;;11.16;100.00;101499.53;5015191;28;20030;-71
2022/10/08 03:18:37;;;;;;;7.43;2.78;;;;;;;11.15;100.00;101503.28;5022634;28;20316;-72
2022/10/08 03:21:05;;;;;;;7.55;2.30;;;;;;;11.14;100.00;101500.78;5016176;28;20472;-70
2022/10/08 03:23:31;;;;;;;9.00;2.58;;;;;;;11.14;100.00;101498.06;5015333;28;20037;-71
2022/10/08 03:25:56;;;;;;;8.93;2.40;;;;;;;11.14;100.00;101501.63;5015013;28;20045;-72
2022/10/08 03:28:22;;;;;;;7.28;2.30;;;;;;;11.13;100.00;101507.25;5035043;28;20124;-70
2022/10/08 03:30:47;;;;;;;6.85;2.30;;;;;;;11.14;100.00;101511.59;5033878;28;20080;-71
2022/10/08 03:33:13;;;;;;;11.52;2.45;;;;;;;11.16;100.00;101504.13;5033473;28;20024;-71
2022/10/08 03:35:46;;;;;;;8.15;2.60;;;;;;;11.13;100.00;101513.50;5033765;28;20443;-71
2022/10/08 03:38:14;;;;;;;10.05;2.55;;;;;;;11.16;100.00;101523.09;5030006;28;20093;-70
2022/10/08 03:40:40;;;;;;;6.15;2.45;;;;;;;11.15;100.00;101526.81;5033882;28;20025;-70
2022/10/08 03:43:05;;;;;;;6.35;2.08;;;;;;;11.12;100.00;101522.66;5034886;28;20037;-69
2022/10/08 03:45:31;;;;;;;12.07;2.42;;;;;;;11.15;100.00;101530.34;5018874;28;20036;-69
2022/10/08 03:47:56;;;;;;;7.90;2.55;;;;;;;11.10;100.00;101538.31;5015323;28;20521;-70
2022/10/08 03:50:21;;;;;;;8.50;2.47;;;;;;;11.05;100.00;101532.69;5029865;28;20026;-71
2022/10/08 03:52:47;;;;;;;8.63;2.45;;;;;;;11.06;100.00;101536.22;5029830;28;20032;-71
2022/10/08 03:55:12;;;;;;;9.50;2.63;;;;;;;11.02;100.00;101534.97;5032020;28;20029;-70
2022/10/08 03:57:37;;;;;;;8.93;2.58;;;;;;;10.99;100.00;101538.94;5021446;28;20025;-70
2022/10/08 04:00:03;;;;;;;4.13;2.50;;;;;;;10.97;100.00;101532.91;5017582;28;20037;-71
2022/10/08 04:02:28;;;;;;;8.05;2.78;;;;;;;10.96;100.00;101533.94;5011929;28;20041;-69
2022/10/08 04:04:54;;;;;;;8.60;2.60;;;;;;;10.94;100.00;101538.75;5021025;28;20030;-69
2022/10/08 04:07:19;;;;;;;9.75;2.90;;;;;;;10.93;100.00;101532.50;5033467;28;20033;-70
2022/10/08 04:09:44;;;;;;;9.55;3.58;;;;;;;10.91;100.00;101534.56;5020570;28;20026;-70
2022/10/08 04:12:10;;;;;;;8.85;2.78;;;;;;;10.87;100.00;101536.06;5034760;28;20125;-70
2022/10/08 04:14:35;;;;;;;8.52;2.65;;;;;;;10.90;100.00;101535.63;5027586;28;20036;-70
2022/10/08 04:17:00;;;;;;;8.10;3.42;;;;;;;10.86;100.00;101545.22;5034204;28;20029;-70
2022/10/08 04:19:25;;;;;;;10.65;3.78;;;;;;;10.86;100.00;101552.50;5027674;28;20045;-70
2022/10/08 04:21:51;;;;;;;7.63;3.92;;;;;;;10.86;100.00;101544.41;5025844;28;20068;-70
2022/10/08 04:24:16;;;;;;;10.85;5.47;;;;;;;10.87;100.00;101549.59;5025851;28;20045;-70
2022/10/08 04:26:41;;;;;;;12.65;7.55;;;;;;;10.88;100.00;101545.81;5027670;28;20033;-69
2022/10/08 04:29:07;;;;;;;12.68;7.90;;;;;;;10.89;100.00;101541.25;5051896;28;20431;-68
2022/10/08 04:31:32;;;;;;;16.20;9.43;;;;;;;10.90;100.00;101548.31;5037389;28;20032;-69
2022/10/08 04:33:57;;;;;;;17.95;10.73;;;;;;;10.92;100.00;101551.66;5050228;28;20115;-71
2022/10/08 04:36:23;;;;;;;18.77;11.75;;;;;;;10.89;100.00;101547.50;5033644;28;20104;-69
2022/10/08 04:38:49;;;;;;;22.83;13.23;;;;;;;10.91;100.00;101560.81;5024221;28;20022;-77
2022/10/08 04:41:20;;;;;;;21.23;13.30;;;;;;;10.93;100.00;101562.28;5061828;28;20399;-70
2022/10/08 04:43:46;;;;;;;23.90;15.40;;;;;;;10.96;100.00;101559.16;5042986;28;20025;-69
2022/10/08 04:46:13;;;;;;;25.40;17.10;;;;;;;10.97;100.00;101574.34;5032452;28;20091;-74
2022/10/08 04:48:45;;;;;;;30.27;20.23;;;;;;;11.01;100.00;101574.78;5032922;28;20526;-73
2022/10/08 04:51:10;;;;;;;30.98;20.80;;;;;;;11.02;100.00;101568.34;5049075;28;20025;-73
2022/10/08 04:53:35;;;;;;;31.25;21.77;;;;;;;11.03;100.00;101586.22;5048207;28;20031;-72
2022/10/08 04:56:11;;;;;;;35.88;22.75;;;;;;;11.11;100.00;101583.31;5034681;28;20104;-70
2022/10/08 04:58:36;;;;;;;34.30;24.30;;;;;;;11.11;100.00;101591.44;5031978;28;20060;-70
2022/10/08 05:01:07;;;;;;;41.05;25.90;;;;;;;11.11;100.00;101587.88;5030538;28;20025;-71
2022/10/08 05:03:37;;;;;;;36.53;24.92;;;;;;;11.09;100.00;101590.81;5029727;28;20045;-70
2022/10/08 05:06:02;;;;;;;42.42;26.67;;;;;;;11.15;100.00;101592.66;5013629;28;20081;-71
2022/10/08 05:08:28;;;;;;;40.42;25.77;;;;;;;11.16;100.00;101593.50;5013008;28;20404;-72
2022/10/08 05:10:53;;;;;;;41.28;27.15;;;;;;;11.17;100.00;101592.44;5013319;28;20044;-70
2022/10/08 05:13:18;;;;;;;48.10;28.90;;;;;;;11.17;100.00;101598.72;5012968;28;20049;-71
2022/10/08 05:15:44;;;;;;;43.72;29.30;;;;;;;11.18;100.00;101599.53;5033005;28;20022;-71
2022/10/08 05:18:09;;;;;;;44.17;28.80;;;;;;;11.17;100.00;101601.44;5031727;28;20396;-71
2022/10/08 05:20:35;;;;;;;47.22;30.00;;;;;;;11.20;100.00;101605.56;5033153;28;20037;-70
2022/10/08 05:23:00;;;;;;;50.83;30.25;;;;;;;11.23;100.00;101604.31;5032683;28;20045;-71
2022/10/08 05:25:26;;;;;;;46.70;31.33;;;;;;;11.22;100.00;101605.38;5021352;28;20101;-71
2022/10/08 05:27:51;;;;;;;50.47;32.03;;;;;;;11.19;100.00;101609.34;5024209;28;20030;-70
2022/10/08 05:30:16;;;;;;;45.00;30.88;;;;;;;11.18;100.00;101608.50;5025384;28;20035;-71
2022/10/08 05:32:42;;;;;;;48.38;31.42;;;;;;;11.15;100.00;101605.38;5032482;28;20033;-71
2022/10/08 05:35:07;;;;;;;48.92;31.15;;;;;;;11.19;100.00;101614.75;5030099;28;20116;-70
2022/10/08 05:37:32;;;;;;;46.42;29.98;;;;;;;11.17;100.00;101609.56;5028493;28;20030;-71
2022/10/08 05:39:57;;;;;;;51.50;31.10;;;;;;;11.18;100.00;101616.63;5018341;28;20025;-71
2022/10/08 05:42:23;;;;;;;46.40;31.27;;;;;;;11.17;100.00;101625.81;5024730;28;20468;-70
2022/10/08 05:44:48;;;;;;;51.88;32.08;;;;;;;11.13;100.00;101626.44;5030079;28;20025;-72
2022/10/08 05:47:13;;;;;;;45.90;31.95;;;;;;;11.14;100.00;101628.09;5013028;28;20017;-71
2022/10/08 05:49:38;;;;;;;56.42;32.20;;;;;;;11.14;100.00;101631.66;5032590;28;20033;-71
2022/10/08 05:52:04;;;;;;;54.30;31.75;;;;;;;11.16;100.00;101642.28;5032663;28;20025;-70
2022/10/08 05:54:29;;;;;;;49.28;31.55;;;;;;;11.12;100.00;101635.59;5025837;28;20080;-70
2022/10/08 05:56:55;;;;;;;50.10;31.92;;;;;;;11.17;100.00;101639.34;5034864;28;20065;-70
2022/10/08 05:59:22;;;;;;;52.05;33.28;;;;;;;11.13;100.00;101654.34;5024422;28;20025;-70
2022/10/08 06:01:47;;;;;;;54.70;32.92;;;;;;;11.14;100.00;101647.91;5033110;28;20515;-71
2022/10/08 06:04:13;;;;;;;54.42;31.63;;;;;;;11.08;100.00;101654.16;5025030;28;20030;-72
2022/10/08 06:06:40;;;;;;;49.47;31.73;;;;;;;11.09;100.00;101650.38;5011419;28;20022;-71
2022/10/08 06:09:07;;;;;;;57.08;32.63;;;;;;;11.05;100.00;101662.72;5024832;28;20029;-71
2022/10/08 06:11:34;;;;;;;56.08;33.42;;;;;;;11.04;100.00;101662.91;5032615;28;20017;-71
2022/10/08 06:14:00;;;;;;;50.95;31.63;;;;;;;11.04;100.00;101669.16;5030917;28;20480;-70
2022/10/08 06:16:27;;;;;;;46.72;30.60;;;;;;;11.01;100.00;101661.44;5032082;28;20034;-71
2022/10/08 06:18:52;;;;;;;54.47;32.72;;;;;;;11.01;100.00;101671.47;5031160;28;20111;-71
2022/10/08 06:21:20;;;;;;;49.78;31.73;;;;;;;10.99;100.00;101679.75;5030917;28;20017;-71
2022/10/08 06:23:48;;;;;;;53.58;32.03;;;;;;;11.00;100.00;101686.84;5031124;28;20275;-71
2022/10/08 06:26:14;;;;;;;53.15;31.67;;;;;;;10.98;100.00;101680.81;5031800;28;20032;-73
2022/10/08 06:28:40;;;;;;;50.15;31.70;;;;;;;10.98;100.00;101686.25;5032088;28;20025;-71
2022/10/08 06:31:06;;;;;;;51.97;31.40;;;;;;;11.00;100.00;101689.56;5032335;28;20109;-71
2022/10/08 06:33:32;;;;;;;53.40;30.67;;;;;;;10.95;100.00;101690.19;5030216;28;20061;-73
2022/10/08 06:36:05;;;;;;;50.50;31.10;;;;;;;10.98;100.00;101697.06;5012320;28;20057;-72
2022/10/08 06:38:30;;;;;;;56.70;31.98;;;;;;;10.97;100.00;101706.22;5031081;28;20045;-73
2022/10/08 06:40:56;;;;;;;47.92;30.83;;;;;;;10.96;100.00;101709.97;5032480;28;20036;-73
2022/10/08 06:43:22;;;;;;;50.33;30.80;;;;;;;10.99;100.00;101713.13;5021021;28;20063;-73
2022/10/08 06:45:47;;;;;;;49.50;30.70;;;;;;;11.00;100.00;101722.06;5020098;28;20032;-72
2022/10/08 06:48:13;;;;;;;52.60;32.22;;;;;;;11.01;100.00;101723.75;5012525;28;20116;-72
2022/10/08 06:50:41;;;;;;;51.08;31.10;;;;;;;11.04;100.00;101734.16;5012766;28;20045;-71
2022/10/08 06:53:09;;;;;;;44.95;29.08;;;;;;;11.06;100.00;101734.78;5020001;28;20030;-72
2022/10/08 06:55:35;;;;;;;49.72;29.08;;;;;;;11.08;100.00;101738.13;5030737;28;20389;-75
2022/10/08 06:58:01;;;;;;;48.30;28.90;;;;;;;11.09;100.00;101737.06;5033916;28;20025;-77
2022/10/08 07:00:26;;;;;;;43.75;26.63;;;;;;;11.13;100.00;101738.34;5033134;28;20025;-72
2022/10/08 07:02:52;;;;;;;44.53;26.30;;;;;;;11.16;100.00;101756.06;5034024;28;20033;-70
2022/10/08 07:05:18;;;;;;;40.03;25.92;;;;;;;11.16;100.00;101758.75;5033730;28;20040;-70
2022/10/08 07:07:43;;;;;;;38.42;23.73;;;;;;;11.18;100.00;101768.34;5034862;28;20037;-70
2022/10/08 07:10:08;;;;;;;39.78;24.38;;;;;;;11.20;100.00;101773.53;5034815;28;20029;-72
2022/10/08 07:12:34;;;;;;;33.25;21.58;;;;;;;11.27;100.00;101776.28;5035159;28;20457;-72
2022/10/08 07:14:59;;;;;;;34.97;22.45;;;;;;;11.25;100.00;101784.63;5022422;28;20026;-73
2022/10/08 07:17:27;;;;;;;34.67;20.80;;;;;;;11.26;100.00;101780.03;5027438;28;20033;-72
2022/10/08 07:19:53;;;;;;;35.08;20.98;;;;;;;11.24;100.00;101785.66;5034887;28;20108;-72
2022/10/08 07:22:18;;;;;;;31.70;18.80;;;;;;;11.25;100.00;101781.09;5034617;28;20052;-72
2022/10/08 07:24:44;;;;;;;36.00;19.42;;;;;;;11.28;100.00;101786.09;5034518;28;20435;-72
2022/10/08 07:27:09;;;;;;;32.65;16.98;;;;;;;11.29;100.00;101790.44;5029229;28;20464;-72
2022/10/08 07:29:37;;;;;;;28.83;16.50;;;;;;;11.34;100.00;101787.97;5034386;28;20025;-72
2022/10/08 07:32:03;;;;;;;26.98;16.52;;;;;;;11.36;100.00;101802.13;5034838;28;20029;-72
2022/10/08 07:34:28;;;;;;;25.30;14.85;;;;;;;11.41;100.00;101805.03;5033464;28;20025;-72
2022/10/08 07:36:53;;;;;;;23.05;13.98;;;;;;;11.47;100.00;101804.25;5030874;28;20049;-72
2022/10/08 07:39:19;;;;;;;23.67;13.52;;;;;;;11.49;100.00;101802.16;5019330;28;20056;-72
2022/10/08 07:41:45;;;;;;;22.75;12.07;;;;;;;11.55;100.00;101813.19;5014575;28;20049;-72
2022/10/08 07:44:11;;;;;;;22.50;12.13;;;;;;;11.56;100.00;101817.56;5014421;28;20084;-72
2022/10/08 07:46:42;;;;;;;23.25;10.63;;;;;;;11.59;100.00;101817.97;5028060;28;20113;-72
2022/10/08 07:49:07;;;;;;;19.93;10.57;;;;;;;11.62;100.00;101817.56;5034433;28;20366;-73
2022/10/08 07:51:33;;;;;;;22.67;10.30;;;;;;;11.67;100.00;101825.94;5033515;28;20025;-73
2022/10/08 07:54:00;;;;;;;16.75;8.40;;;;;;;11.72;100.00;101828.00;5032905;28;20099;-73
2022/10/08 07:56:26;;;;;;;15.98;7.28;;;;;;;11.80;100.00;101816.94;5034238;28;20029;-73
2022/10/08 07:58:51;;;;;;;15.13;6.63;;;;;;;11.81;100.00;101824.03;5033971;28;20028;-73
2022/10/08 08:01:20;;;;;;;12.95;6.68;;;;;;;11.84;100.00;101831.75;5032016;28;20029;-75
2022/10/08 08:03:51;;;;;;;15.55;6.40;;;;;;;11.93;100.00;101828.88;5033280;28;20048;-72
2022/10/08 08:06:17;;;;;;;21.80;7.07;;;;;;;11.92;100.00;101832.59;5032593;28;20025;-72
2022/10/08 08:08:44;;;;;;;13.63;5.35;;;;;;;11.97;100.00;101835.53;5032812;28;20029;-73
2022/10/08 08:11:13;;;;;;;15.95;4.80;;;;;;;12.02;100.00;101843.88;5031278;28;20032;-77
2022/10/08 08:13:39;;;;;;;11.45;4.85;;;;;;;12.06;100.00;101842.41;5035038;28;20426;-72
2022/10/08 08:16:07;;;;;;;12.15;4.10;;;;;;;12.12;100.00;101851.59;5033731;28;20083;-72
2022/10/08 08:18:35;;;;;;;14.25;4.88;;;;;;;12.13;100.00;101856.81;5026109;28;20056;-72
2022/10/08 08:21:06;;;;;;;12.07;4.30;;;;;;;12.17;100.00;101863.47;5033937;28;20073;-72
2022/10/08 08:23:35;;;;;;;10.13;4.32;;;;;;;12.26;100.00;101868.69;5033537;28;20059;-73
2022/10/08 08:26:01;;;;;;;16.35;4.32;;;;;;;12.24;100.00;101858.03;5033299;28;20037;-73
2022/10/08 08:28:27;;;;;;;15.27;4.47;;;;;;;12.29;100.00;101865.53;5048630;28;20342;-74
2022/10/08 08:30:54;;;;;;;13.10;4.15;;;;;;;12.32;100.00;101875.97;5013734;28;20025;-73
2022/10/08 08:33:20;;;;;;;12.55;4.90;;;;;;;12.36;100.00;101877.22;5028988;28;20038;-74
2022/10/08 08:35:52;;;;;;;16.50;4.13;;;;;;;12.40;100.00;101889.34;5013701;28;20453;-73
2022/10/08 08:38:18;;;;;;;16.80;4.38;;;;;;;12.41;100.00;101891.00;5016861;28;20032;-73
2022/10/08 08:40:43;;;;;;;14.68;4.15;;;;;;;12.45;100.00;101892.22;5032525;28;20025;-73
2022/10/08 08:43:08;;;;;;;12.07;4.18;;;;;;;12.52;100.00;101887.63;5021016;28;20034;-73
2022/10/08 08:45:36;;;;;;;11.43;3.55;;;;;;;12.54;100.00;101901.00;5022780;28;20028;-73
2022/10/08 08:48:11;;;;;;;13.35;3.42;;;;;;;12.53;100.00;101900.16;5013758;28;20037;-73
2022/10/08 08:50:40;;;;;;;15.48;3.50;;;;;;;12.58;100.00;101903.06;5013420;28;20031;-73
2022/10/08 08:53:09;;;;;;;13.40;3.22;;;;;;;12.64;100.00;101911.44;5012944;28;20038;-73
2022/10/08 08:55:37;;;;;;;9.77;3.10;;;;;;;12.66;100.00;101898.47;5013131;28;20334;-73
2022/10/08 08:58:15;;;;;;;11.95;3.25;;;;;;;12.70;100.00;101913.28;5016577;28;20029;-78
2022/10/08 09:00:45;;;;;;;11.25;3.00;;;;;;;12.76;100.00;101910.53;5016199;28;20017;-73
2022/10/08 09:03:23;;;;;;;10.13;2.67;;;;;;;12.84;100.00;101917.63;5026589;28;20035;-73
2022/10/08 09:05:55;;;;;;;8.25;2.30;;;;;;;12.89;100.00;101915.13;5023227;28;20036;-74
2022/10/08 09:08:49;;;;;;;13.48;3.00;;;;;;;12.97;100.00;101911.31;5033326;28;20025;-74
2022/10/08 09:11:18;;;;;;;12.85;2.20;;;;;;;12.94;100.00;101918.00;5029702;28;20052;-73
2022/10/08 09:14:13;;;;;;;10.05;2.40;;;;;;;13.03;100.00;101920.47;5048006;28;20108;-75
2022/10/08 09:16:48;;;;;;;9.73;2.00;;;;;;;12.96;94.80;101928.66;5032924;28;20025;-85
2022/10/08 09:19:13;;;;;;;12.25;1.83;;;;;;;12.97;91.44;101927.63;5025861;28;20065;-77
2022/10/08 09:21:38;;;;;;;10.20;2.33;;;;;;;13.00;88.41;101943.50;5019085;28;20076;-73
2022/10/08 09:24:04;;;;;;;11.50;1.98;;;;;;;12.98;86.08;101934.72;5028703;28;20099;-72
2022/10/08 09:26:34;;;;;;;12.00;1.95;;;;;;;12.98;91.70;101939.31;5043022;28;20030;-73
2022/10/08 09:29:01;;;;;;;8.63;1.70;;;;;;;13.04;85.02;101947.44;5024773;28;20079;-73
2022/10/08 09:31:38;;;;;;;8.18;1.77;;;;;;;13.12;87.82;101943.66;5030807;28;20064;-74
2022/10/08 09:34:16;;;;;;;14.50;1.90;;;;;;;13.20;93.54;101954.28;5032968;28;20025;-72
2022/10/08 09:36:49;;;;;;;9.18;2.15;;;;;;;13.28;86.04;101951.31;5016621;28;20034;-72
2022/10/08 09:39:24;;;;;;;7.47;1.73;;;;;;;13.26;86.65;101964.28;5012930;28;20026;-74
2022/10/08 09:42:12;;;;;;;8.60;1.77;;;;;;;13.33;85.68;101964.28;5011652;28;20393;-73
2022/10/08 09:44:44;;;;;;;13.05;2.72;;;;;;;13.39;81.95;101957.16;5017770;28;20034;-71
2022/10/08 09:47:17;;;;;;;10.80;2.45;;;;;;;13.44;84.28;101962.78;5014813;28;20033;-74
2022/10/08 09:49:43;;;;;;;9.18;1.92;;;;;;;13.42;80.49;101964.88;5011500;28;20458;-74
2022/10/08 09:52:25;;;;;;;8.75;1.80;;;;;;;13.43;83.75;101971.97;5013161;28;20076;-76
2022/10/08 09:54:57;;;;;;;7.95;1.70;;;;;;;13.48;84.85;101977.59;5012738;28;20033;-71
2022/10/08 09:57:23;;;;;;;8.30;2.15;;;;;;;13.51;80.63;101979.88;5013063;28;20026;-76
2022/10/08 09:59:58;;;;;;;10.13;2.08;;;;;;;13.57;81.44;101984.47;5012930;28;20105;-70
2022/10/08 10:02:28;;;;;;;7.90;1.95;;;;;;;13.65;79.98;101988.81;5010614;28;20026;-71
2022/10/08 10:04:54;;;;;;;5.63;1.40;;;;;;;13.65;75.00;101992.38;5012938;28;20108;-74
2022/10/08 10:07:20;;;;;;;6.88;1.90;;;;;;;13.61;75.43;101987.59;5030482;28;20028;-71
2022/10/08 10:10:22;;;;;;;16.30;2.38;;;;;;;13.71;77.07;101992.53;5032340;28;20037;-74
2022/10/08 10:12:53;;;;;;;7.22;2.10;;;;;;;13.74;73.77;101992.09;5029428;28;20063;-71
2022/10/08 10:15:23;;;;;;;6.05;1.60;;;;;;;13.72;73.28;101986.88;5019365;28;20034;-73
2022/10/08 10:17:59;;;;;;;12.65;2.00;;;;;;;13.73;72.54;101991.28;5031517;28;20053;-75
2022/10/08 10:20:40;;;;;;;5.20;1.60;;;;;;;13.79;73.30;101997.75;5031877;28;20036;-74
2022/10/08 10:23:16;;;;;;;8.48;1.80;;;;;;;13.89;71.38;101991.81;5032475;28;20042;-72
2022/10/08 10:25:53;;;;;;;9.50;1.63;;;;;;;13.91;73.48;102001.44;5025747;28;20030;-71
2022/10/08 10:28:32;;;;;;;6.28;1.38;;;;;;;13.96;70.32;101998.88;5016545;28;20354;-72
2022/10/08 10:31:04;;;;;;;7.60;1.95;;;;;;;14.03;70.91;101998.03;5016102;28;20021;-76
2022/10/08 10:33:33;;;;;;;7.75;1.63;;;;;;;13.95;69.38;102016.28;5015883;28;20026;-72
2022/10/08 10:36:04;;;;;;;6.80;1.95;;;;;;;13.82;68.40;102008.19;5016230;28;20026;-71
2022/10/08 10:38:34;;;;;;;7.18;1.50;;;;;;;13.83;68.91;102002.53;5023375;28;20468;-72
2022/10/08 10:41:12;;;;;;;10.25;2.20;;;;;;;13.99;67.50;102012.06;5033362;28;20087;-74
2022/10/08 10:43:46;;;;;;;7.78;1.60;;;;;;;14.05;69.36;102010.34;5019628;28;20112;-72
2022/10/08 10:46:23;;;;;;;7.80;1.55;;;;;;;14.22;68.94;102016.09;5032574;28;20032;-73
2022/10/08 10:48:49;;;;;;;6.57;1.48;;;;;;;14.32;67.58;102010.97;5035842;28;20029;-71
2022/10/08 10:51:22;;;;;;;5.18;1.40;;;;;;;14.38;66.78;102008.44;5029822;28;20033;-72
2022/10/08 10:54:19;;;;;;;9.10;1.65;;;;;;;14.45;65.79;102012.75;5016193;28;20022;-72
2022/10/08 10:56:52;;;;;;;8.63;1.67;;;;;;;14.48;65.38;102009.59;5025635;28;20025;-71
2022/10/08 10:59:33;;;;;;;6.15;1.50;;;;;;;14.52;66.62;102018.13;5023864;28;20022;-72
2022/10/08 11:02:25;;;;;;;6.95;1.42;;;;;;;14.58;64.77;102019.16;5013561;28;20069;-72
2022/10/08 11:05:06;;;;;;;6.75;1.58;;;;;;;14.61;65.66;102016.81;5015482;28;20026;-74
2022/10/08 11:07:31;;;;;;;8.63;1.58;;;;;;;14.66;63.70;102017.00;5015727;28;20021;-73
2022/10/08 11:10:24;;;;;;;4.45;1.38;;;;;;;14.70;63.96;102017.38;5014157;28;20044;-71
2022/10/08 11:13:04;;;;;;;7.80;1.40;;;;;;;14.54;64.65;102021.50;5015931;28;20026;-73
2022/10/08 11:15:43;;;;;;;6.90;1.33;;;;;;;14.47;61.90;102028.88;5015546;28;20048;-73
2022/10/08 11:18:24;;;;;;;6.50;1.30;;;;;;;14.27;62.73;102029.88;5015290;28;20057;-72
2022/10/08 11:21:18;;;;;;;8.73;1.63;;;;;;;14.29;62.29;102030.47;5013766;28;20022;-72
2022/10/08 11:23:55;;;;;;;5.97;1.35;;;;;;;14.32;63.07;102035.47;5015388;28;20049;-73
2022/10/08 11:26:43;;;;;;;9.57;1.90;;;;;;;14.45;63.14;102022.84;5015940;28;20441;-73